Home   Weather   Australia   Canberra   Past weeks
Flag for Australia

Past Weather in Canberra, Australian Capital Territory, Australia — Yesterday and Last 2 Weeks

Currently: 45 °F. Overcast. (Weather station: Canberra Airport, Australia). See more current weather

Past Weather in Canberra — Graph

°F

Canberra Temperature Yesterday

Maximum temperature yesterday: 59 °F (at 12:00 pm)
Minimum temperature yesterday: 36 °F (at 2:32 am)
Average temperature yesterday: 47 °F

High & Low Weather Summary for the Past Weeks

 TemperatureHumidityPressure
High70 °F (May 14, 2:00 pm)100% (May 11, 7:00 am)30.54 "Hg (May 11, 7:00 am)
Low28 °F (May 19, 5:00 am)37% (May 24, 1:30 pm)29.92 "Hg (May 15, 1:30 pm)
Average51 °F83%30.21 "Hg
* Reported May 11 7:00 am — May 26 7:00 am, Canberra. Weather by CustomWeather, © 2022

Note: Actual official high and low records may vary slightly from our data, if they occured in-between our weather recording intervals... More about our weather records

Canberra Weather History for the Previous 24 Hours

Scroll right to see more
 ConditionsComfort  
Time TempWeatherWind HumidityBarometerVisibility
7:00 am
Thu, May 26
43 °FOvercast.5 mph100%30.15 "HgN/A
6:00 am43 °FOvercast.6 mph100%30.15 "HgN/A
5:30 am41 °FPassing clouds.6 mph100%30.12 "HgN/A
5:00 am41 °FLow clouds.6 mph100%30.12 "HgN/A
4:30 am43 °FFog.6 mph100%30.12 "Hg1 mi
4:03 am43 °FFog.7 mph100%30.12 "Hg3 mi
3:00 am45 °FLow clouds.7 mph100%30.15 "HgN/A
2:30 am45 °FLow clouds.6 mph100%30.15 "HgN/A
2:00 am45 °FLow clouds.6 mph100%30.15 "HgN/A
1:30 am46 °FLow clouds.6 mph100%30.15 "HgN/A
1:00 am46 °FLow clouds.6 mph93%30.15 "HgN/A
12:30 am46 °FLow clouds.6 mph93%30.18 "HgN/A
12:00 am45 °FOvercast.8 mph100%30.18 "HgN/A
11:30 pm
Wed, May 25
45 °FOvercast.3 mph100%30.18 "HgN/A
11:00 pm43 °FPassing clouds.No wind100%30.18 "HgN/A
10:34 pm41 °FFog.No wind100%30.18 "Hg3 mi
10:00 pm43 °FClear.5 mph93%30.18 "HgN/A
9:30 pm45 °FClear.6 mph100%30.18 "HgN/A
9:00 pm43 °FClear.5 mph100%30.21 "HgN/A
6:30 pm48 °FClear.2 mph87%30.18 "HgN/A
6:00 pm50 °FClear.3 mph88%30.18 "HgN/A
5:30 pm50 °FClear.7 mph82%30.18 "HgN/A
5:00 pm52 °FSunny.6 mph82%30.18 "HgN/A
4:30 pm55 °FSunny.6 mph72%30.18 "HgN/A
4:00 pm57 °FScattered clouds.7 mph67%30.18 "HgN/A
3:30 pm59 °FMostly cloudy.7 mph63%30.18 "HgN/A
3:00 pm59 °FScattered clouds.9 mph59%30.18 "HgN/A
2:30 pm59 °FScattered clouds.5 mph59%30.18 "HgN/A
1:00 pm59 °FScattered clouds.8 mph63%30.21 "HgN/A
12:30 pm59 °FScattered clouds.7 mph59%30.21 "HgN/A
12:00 pm59 °FCloudy.5 mph68%30.24 "HgN/A
11:30 am57 °FScattered clouds.3 mph67%30.27 "HgN/A
11:00 am57 °FSunny.6 mph67%30.27 "HgN/A
10:00 am50 °FPartly sunny.6 mph88%30.30 "HgN/A
9:30 am48 °FOvercast.6 mph87%30.30 "HgN/A
9:00 am46 °FOvercast.6 mph100%30.30 "HgN/A
8:30 am45 °FOvercast.6 mph100%30.30 "HgN/A
8:00 am43 °FOvercast.7 mph100%30.30 "HgN/A
Weather by CustomWeather, © 2022

See weather overview